Portada
METAR-TAF:

METAR-TAF

Aeroports :

Rantoul National Aviation Center Airport (Frank Elliott Field)

Rantoul, Illinois, Estats Units d'Amèrica

latitud: 40-17-37N, longitud: 088-08-33W, altitud: 225 m

Observació

L'informe es va fer fa 24 minuts, a les 15:55 UTC
Vent 11 kt del Oest
Temperatura 13°C
Humitat 94%
Pressió 1010 hPa
Visibilitat: 16.1 km
Cel cobert a una alçada de 1300 ft

METAR: KTIP 281555Z AUTO 28011KT 10SM OVC013 13/12 A2983 RMK AO2 T01270116

Hora: 11:19 (16:19 UTC)


TAF: manca

Observacions i pronòstics meteorològics de més de 4000 aeroports (METAR i TAF).

Les estacions disponibles són els punts grocs i vermells al mapa.

Posi el ratolí al punt desitjat per veure el nom de l'estació.

Feu clic per veure les observacions i els pronòstics meteorològics.

Per canviar el mapa: feu clic els botons verds amb una creu de color negre per apropar; al botó verd amb un guió per allunyar la imatge; o en les fletxes verdes per a mapes adjacents.


METAR-TAF: